Time;durP1;ratioP1;P1;durP2;ratioP2;P2;SDS_P1;SDS_P2;PMS_P1;PMS_P2;Temp;Humidity;BMP_temperature;BMP_pressure;BME280_temperature;BME280_humidity;BME280_pressure;Samples;Min_cycle;Max_cycle;Signal;HPM_P1;HPM_P2
2023/11/15 00:03:14;;;;;;;3.13;0.77;;;13.50;46.30;;;;;;10264129;28;20267;-74
2023/11/15 00:08:18;;;;;;;0.67;0.60;;;13.60;46.20;;;;;;10263810;28;20246;-73
2023/11/15 00:13:21;;;;;;;0.57;0.57;;;13.60;46.30;;;;;;10270165;28;20228;-73
2023/11/15 00:18:26;;;;;;;1.30;0.67;;;13.60;46.20;;;;;;10269757;28;20242;-73
2023/11/15 00:23:29;;;;;;;0.70;0.70;;;13.50;46.30;;;;;;10274317;28;20251;-73
2023/11/15 00:28:33;;;;;;;0.70;0.70;;;13.40;46.30;;;;;;10273426;28;20606;-73
2023/11/15 00:33:38;;;;;;;0.90;0.80;;;13.30;46.40;;;;;;10274815;28;20318;-73
2023/11/15 00:38:41;;;;;;;1.27;0.70;;;13.30;46.60;;;;;;10273113;28;20599;-73
2023/11/15 00:43:44;;;;;;;1.13;0.70;;;13.30;46.50;;;;;;10274045;28;20748;-73
2023/11/15 00:48:49;;;;;;;0.60;0.60;;;13.20;46.40;;;;;;10274732;28;20318;-73
2023/11/15 00:53:52;;;;;;;0.97;0.80;;;13.20;46.40;;;;;;10271962;28;20220;-74
2023/11/15 00:58:56;;;;;;;0.70;0.60;;;13.30;46.50;;;;;;10268347;28;20916;-74
2023/11/15 01:04:01;;;;;;;0.80;0.80;;;13.30;46.30;;;;;;10271979;28;20244;-74
2023/11/15 01:09:07;;;;;;;0.60;0.60;;;13.30;46.20;;;;;;10270598;28;20232;-74
2023/11/15 01:14:11;;;;;;;0.70;0.60;;;13.30;46.30;;;;;;10279105;28;20238;-72
2023/11/15 01:19:16;;;;;;;1.90;0.70;;;13.40;46.20;;;;;;10287977;28;20232;-72
2023/11/15 01:24:19;;;;;;;0.70;0.70;;;13.40;46.20;;;;;;10287315;28;20306;-72
2023/11/15 01:29:22;;;;;;;0.93;0.73;;;13.40;46.10;;;;;;10287425;28;20318;-72
2023/11/15 01:34:27;;;;;;;1.03;0.60;;;13.40;46.10;;;;;;10287059;28;20315;-72
2023/11/15 01:39:30;;;;;;;0.93;0.70;;;13.40;45.90;;;;;;10286366;28;20235;-72
2023/11/15 01:44:34;;;;;;;1.40;0.60;;;13.40;45.90;;;;;;10286840;28;20251;-72
2023/11/15 01:49:39;;;;;;;0.97;0.70;;;13.50;45.70;;;;;;10286781;28;20235;-72
2023/11/15 01:54:44;;;;;;;0.70;0.60;;;13.50;45.60;;;;;;10285793;28;20234;-72
2023/11/15 01:59:48;;;;;;;1.03;0.60;;;13.50;45.50;;;;;;10286116;28;20239;-72
2023/11/15 02:04:53;;;;;;;0.90;0.60;;;13.60;45.40;;;;;;10285924;28;20231;-72
2023/11/15 02:09:56;;;;;;;0.60;0.40;;;13.60;45.30;;;;;;10285429;28;20232;-72
2023/11/15 02:15:00;;;;;;;1.40;0.60;;;13.50;45.20;;;;;;10285322;28;20234;-72
2023/11/15 02:20:08;;;;;;;0.80;0.70;;;13.50;45.40;;;;;;10285308;28;20238;-72
2023/11/15 02:25:13;;;;;;;0.50;0.50;;;13.50;45.10;;;;;;10285338;28;20308;-72
2023/11/15 02:30:17;;;;;;;0.67;0.67;;;13.50;45.10;;;;;;10284794;28;20308;-72
2023/11/15 02:35:20;;;;;;;0.93;0.60;;;13.50;45.10;;;;;;10284951;28;20243;-73
2023/11/15 02:40:24;;;;;;;1.00;0.60;;;13.40;44.90;;;;;;10283899;28;20306;-72
2023/11/15 02:45:27;;;;;;;0.50;0.50;;;13.50;45.00;;;;;;10284527;28;20227;-72
2023/11/15 02:50:31;;;;;;;0.50;0.50;;;13.50;44.90;;;;;;10284335;28;20227;-72
2023/11/15 02:55:35;;;;;;;0.67;0.60;;;13.50;45.00;;;;;;10283987;28;20232;-72
2023/11/15 03:00:39;;;;;;;1.37;0.60;;;13.50;44.70;;;;;;10284365;28;20758;-72
2023/11/15 03:05:42;;;;;;;0.93;0.70;;;13.50;44.40;;;;;;10283759;28;20251;-72
2023/11/15 03:10:47;;;;;;;1.03;0.63;;;13.50;44.40;;;;;;10283726;28;20261;-72
2023/11/15 03:15:50;;;;;;;1.10;0.60;;;13.50;43.80;;;;;;10283658;28;20314;-72
2023/11/15 03:20:53;;;;;;;0.60;0.60;;;13.50;44.10;;;;;;10283479;28;20239;-72
2023/11/15 03:25:58;;;;;;;1.33;0.60;;;13.50;44.00;;;;;;10283576;28;20250;-72
2023/11/15 03:31:02;;;;;;;0.50;0.50;;;13.50;43.70;;;;;;10291517;28;20251;-75
2023/11/15 03:36:07;;;;;;;0.60;0.60;;;13.50;44.00;;;;;;10283351;28;20254;-75
2023/11/15 03:41:11;;;;;;;1.27;0.70;;;13.40;43.60;;;;;;10299114;28;20232;-75
2023/11/15 03:46:14;;;;;;;1.50;0.70;;;13.40;43.90;;;;;;10283481;28;20219;-75
2023/11/15 03:51:17;;;;;;;1.30;0.70;;;13.40;43.70;;;;;;10288649;28;20737;-75
2023/11/15 03:56:22;;;;;;;0.80;0.80;;;13.40;43.60;;;;;;10282336;28;20327;-75
2023/11/15 04:01:25;;;;;;;2.37;0.80;;;13.30;43.40;;;;;;10305101;28;20245;-75
2023/11/15 04:06:28;;;;;;;1.20;1.10;;;13.30;43.30;;;;;;10299418;28;20235;-75
2023/11/15 04:11:37;;;;;;;2.00;0.80;;;13.30;43.40;;;;;;10288134;28;20710;-75
2023/11/15 04:16:41;;;;;;;2.70;0.80;;;13.20;42.70;;;;;;10291875;28;20713;-75
2023/11/15 04:21:44;;;;;;;0.93;0.60;;;13.20;43.20;;;;;;10288829;28;20619;-75
2023/11/15 04:26:48;;;;;;;0.83;0.63;;;13.20;43.00;;;;;;10289596;28;20230;-75
2023/11/15 04:31:52;;;;;;;0.93;0.70;;;13.20;42.70;;;;;;10285306;28;20243;-75
2023/11/15 04:36:55;;;;;;;0.97;0.67;;;13.20;42.90;;;;;;10280156;28;20237;-75
2023/11/15 04:41:59;;;;;;;1.33;0.70;;;13.10;42.70;;;;;;10296818;28;20706;-75
2023/11/15 04:47:03;;;;;;;2.93;0.77;;;13.10;42.70;;;;;;10300443;28;20219;-75
2023/11/15 04:52:07;;;;;;;2.10;0.60;;;13.10;43.10;;;;;;10289538;28;20239;-75
2023/11/15 04:57:12;;;;;;;1.40;0.60;;;13.10;43.10;;;;;;10288436;28;20259;-75
2023/11/15 05:02:15;;;;;;;2.43;0.73;;;13.10;42.70;;;;;;10288306;28;20326;-75
2023/11/15 05:07:18;;;;;;;1.17;0.67;;;13.10;42.70;;;;;;10284958;28;20242;-75
2023/11/15 05:12:22;;;;;;;1.70;0.90;;;13.10;43.00;;;;;;10284569;28;20717;-75
2023/11/15 05:17:28;;;;;;;0.87;0.80;;;13.10;42.70;;;;;;10288493;28;20228;-75
2023/11/15 05:22:31;;;;;;;1.40;0.80;;;13.10;42.80;;;;;;10287563;28;20318;-75
2023/11/15 05:27:36;;;;;;;1.47;0.80;;;13.10;43.00;;;;;;10288007;28;20231;-75
2023/11/15 05:32:39;;;;;;;0.67;0.60;;;13.10;42.70;;;;;;10288016;28;20307;-75
2023/11/15 05:37:42;;;;;;;1.37;0.80;;;13.10;43.20;;;;;;10287646;28;20224;-74
2023/11/15 05:42:47;;;;;;;1.47;0.80;;;13.10;44.10;;;;;;10286855;28;20231;-75
2023/11/15 05:47:50;;;;;;;1.00;0.80;;;13.10;43.80;;;;;;10287774;28;20223;-74
2023/11/15 05:52:53;;;;;;;1.37;0.90;;;13.10;43.70;;;;;;10276251;28;20254;-74
2023/11/15 05:57:58;;;;;;;2.10;1.00;;;13.20;43.60;;;;;;10272834;28;20250;-74
2023/11/15 06:03:01;;;;;;;1.30;1.10;;;13.10;43.40;;;;;;10268601;28;20223;-74
2023/11/15 06:08:05;;;;;;;1.97;1.10;;;13.10;43.40;;;;;;10263462;28;20230;-74
2023/11/15 06:13:09;;;;;;;1.07;0.83;;;13.10;43.60;;;;;;10266961;28;20229;-74
2023/11/15 06:18:13;;;;;;;1.67;0.90;;;13.10;43.30;;;;;;10271926;28;20764;-73
2023/11/15 06:23:16;;;;;;;1.10;1.00;;;13.10;43.40;;;;;;10272471;28;20706;-74
2023/11/15 06:28:20;;;;;;;0.90;0.80;;;13.10;43.50;;;;;;10269339;28;20245;-74
2023/11/15 06:33:25;;;;;;;1.30;1.03;;;13.00;43.30;;;;;;10269519;28;21192;-73
2023/11/15 06:38:29;;;;;;;1.50;1.03;;;13.00;43.40;;;;;;10268309;28;20289;-74
2023/11/15 06:43:34;;;;;;;1.33;1.10;;;13.00;43.50;;;;;;10280225;28;20595;-73
2023/11/15 06:48:37;;;;;;;3.43;0.90;;;13.00;43.20;;;;;;10268665;28;20322;-74
2023/11/15 06:53:41;;;;;;;1.17;1.00;;;13.00;43.50;;;;;;10274765;28;20306;-74
2023/11/15 06:58:45;;;;;;;1.37;1.23;;;13.00;43.30;;;;;;10271151;28;20239;-74
2023/11/15 07:03:49;;;;;;;1.33;1.03;;;13.00;43.40;;;;;;10265080;28;20232;-74
2023/11/15 07:08:52;;;;;;;1.17;0.97;;;12.90;43.30;;;;;;10265472;28;20231;-74
2023/11/15 07:13:57;;;;;;;1.17;0.97;;;12.90;43.60;;;;;;10273336;28;20235;-74
2023/11/15 07:19:00;;;;;;;0.93;0.90;;;12.90;43.70;;;;;;10266743;28;20223;-75
2023/11/15 07:24:03;;;;;;;1.93;1.10;;;12.90;43.80;;;;;;10268190;28;20221;-74
2023/11/15 07:29:09;;;;;;;1.53;1.00;;;12.90;43.80;;;;;;10273574;28;20357;-75
2023/11/15 07:34:13;;;;;;;0.70;0.70;;;13.00;43.80;;;;;;10271328;28;20310;-75
2023/11/15 07:39:18;;;;;;;1.47;0.80;;;13.00;43.90;;;;;;10275376;28;20263;-74
2023/11/15 07:44:25;;;;;;;1.97;0.80;;;13.00;44.10;;;;;;10274847;28;20787;-74
2023/11/15 07:49:29;;;;;;;0.90;0.73;;;13.00;44.20;;;;;;10275455;28;20862;-74
2023/11/15 07:54:33;;;;;;;2.60;0.80;;;13.00;44.10;;;;;;10274005;28;20237;-74
2023/11/15 07:59:38;;;;;;;0.87;0.80;;;13.10;44.10;;;;;;10275074;28;20646;-74
2023/11/15 08:04:42;;;;;;;2.37;0.83;;;13.10;44.30;;;;;;10270320;28;20308;-74
2023/11/15 08:09:47;;;;;;;0.97;0.67;;;13.10;44.40;;;;;;10275518;28;20608;-74
2023/11/15 08:14:52;;;;;;;2.67;0.80;;;13.10;44.50;;;;;;10274788;28;20228;-74
2023/11/15 08:19:56;;;;;;;0.73;0.70;;;13.20;44.60;;;;;;10271691;28;20232;-74
2023/11/15 08:24:59;;;;;;;1.73;1.00;;;13.20;44.50;;;;;;10274191;28;20223;-74
2023/11/15 08:30:05;;;;;;;0.97;0.70;;;13.30;44.20;;;;;;10269019;28;20231;-74
2023/11/15 08:35:09;;;;;;;1.13;0.80;;;13.30;44.10;;;;;;10265120;28;20282;-74
2023/11/15 08:40:14;;;;;;;0.70;0.70;;;13.40;44.40;;;;;;10272399;28;20225;-74
2023/11/15 08:45:32;;;;;;;0.87;0.77;;;13.50;44.40;;;;;;10272401;28;20317;-74
2023/11/15 08:50:35;;;;;;;0.80;0.70;;;13.60;44.40;;;;;;10275942;28;20239;-74
2023/11/15 08:55:40;;;;;;;1.67;0.80;;;13.70;44.20;;;;;;10273394;28;20299;-74
2023/11/15 09:00:46;;;;;;;2.03;0.90;;;13.80;44.10;;;;;;10268746;28;20597;-74
2023/11/15 09:05:49;;;;;;;1.10;0.70;;;13.90;43.40;;;;;;10266965;28;20291;-74
2023/11/15 09:10:53;;;;;;;0.93;0.57;;;13.90;43.40;;;;;;10270654;28;20275;-74
2023/11/15 09:15:58;;;;;;;0.83;0.70;;;13.90;43.40;;;;;;10269798;28;20236;-74
2023/11/15 09:21:03;;;;;;;1.10;0.60;;;13.90;43.40;;;;;;10270406;28;20769;-74
2023/11/15 09:26:09;;;;;;;1.43;0.60;;;13.90;43.40;;;;;;10272478;28;20508;-74
2023/11/15 09:31:13;;;;;;;0.77;0.60;;;13.90;43.40;;;;;;10270460;28;20606;-74
2023/11/15 09:36:17;;;;;;;0.67;0.60;;;14.00;43.40;;;;;;10274362;28;20372;-74
2023/11/15 09:41:20;;;;;;;1.00;0.80;;;14.10;43.60;;;;;;10270749;28;20235;-74
2023/11/15 09:46:29;;;;;;;1.03;0.70;;;14.20;43.40;;;;;;10270413;28;20800;-74
2023/11/15 09:51:34;;;;;;;1.80;0.80;;;14.20;42.70;;;;;;10270530;28;20224;-74
2023/11/15 09:56:37;;;;;;;2.70;0.83;;;14.20;42.90;;;;;;10268340;28;20235;-74
2023/11/15 10:01:46;;;;;;;2.30;0.80;;;14.20;42.80;;;;;;10265361;28;20235;-74
2023/11/15 10:06:51;;;;;;;1.30;0.97;;;14.20;42.30;;;;;;10268147;28;20227;-74
2023/11/15 10:11:55;;;;;;;3.13;1.00;;;14.20;42.60;;;;;;10271052;28;20235;-74
2023/11/15 10:17:03;;;;;;;2.30;1.10;;;14.10;42.90;;;;;;10268332;28;20232;-74
2023/11/15 10:22:07;;;;;;;2.97;1.50;;;14.10;42.60;;;;;;10268084;28;20240;-74
2023/11/15 10:27:13;;;;;;;2.80;1.30;;;14.10;42.60;;;;;;10269206;28;20985;-74
2023/11/15 10:32:20;;;;;;;3.63;2.30;;;14.10;42.60;;;;;;10269927;28;20231;-74
2023/11/15 10:37:24;;;;;;;3.63;2.70;;;14.10;42.10;;;;;;10264234;28;20240;-74
2023/11/15 10:42:29;;;;;;;1.77;1.20;;;14.00;42.10;;;;;;10268403;28;20237;-73
2023/11/15 10:47:37;;;;;;;1.50;1.37;;;14.00;42.10;;;;;;10268670;28;20251;-74
2023/11/15 10:52:44;;;;;;;2.60;1.50;;;14.00;42.20;;;;;;10265567;28;20664;-74
2023/11/15 10:57:48;;;;;;;2.43;1.20;;;14.00;42.50;;;;;;10269043;28;20386;-74
2023/11/15 11:02:53;;;;;;;2.67;1.20;;;14.00;42.90;;;;;;10265082;28;20947;-74
2023/11/15 12:19:02;;;;;;;5.97;1.43;;;14.40;41.50;;;;;;10268842;28;21594;-75
2023/11/15 12:24:06;;;;;;;1.67;0.90;;;14.40;41.80;;;;;;10293674;28;20223;-75
2023/11/15 12:29:19;;;;;;;1.20;0.80;;;14.40;41.90;;;;;;10301893;28;20233;-75
2023/11/15 12:34:24;;;;;;;2.07;1.07;;;14.40;41.70;;;;;;10313779;28;20227;-75
2023/11/15 12:39:36;;;;;;;1.37;0.90;;;14.40;41.80;;;;;;10314663;28;20227;-74
2023/11/15 12:44:44;;;;;;;1.80;0.70;;;14.40;41.90;;;;;;10317372;28;20277;-74
2023/11/15 12:49:48;;;;;;;1.47;0.90;;;14.30;42.10;;;;;;10308732;28;20230;-75
2023/11/15 12:54:55;;;;;;;0.60;0.60;;;14.30;42.20;;;;;;10309020;28;20705;-75
2023/11/15 12:59:59;;;;;;;0.83;0.80;;;14.20;42.10;;;;;;10310304;28;20223;-75
2023/11/15 13:05:05;;;;;;;1.83;0.70;;;14.20;42.60;;;;;;10282734;28;20765;-75
2023/11/15 13:10:10;;;;;;;0.70;0.70;;;14.20;42.50;;;;;;10272958;28;20227;-75
2023/11/15 13:15:17;;;;;;;1.63;0.90;;;14.20;42.60;;;;;;10276773;28;20232;-75
2023/11/15 13:20:22;;;;;;;0.70;0.70;;;14.20;42.70;;;;;;10275539;28;20235;-75
2023/11/15 13:25:26;;;;;;;1.83;1.10;;;14.20;42.80;;;;;;10270132;28;20315;-75
2023/11/15 13:30:29;;;;;;;0.70;0.70;;;14.30;42.70;;;;;;10275738;28;20237;-75
2023/11/15 13:35:34;;;;;;;1.30;0.70;;;14.30;42.70;;;;;;10279277;28;20756;-77
2023/11/15 13:40:38;;;;;;;1.27;1.00;;;14.30;42.40;;;;;;10291556;28;20231;-77
2023/11/15 13:45:43;;;;;;;0.90;0.90;;;14.40;42.50;;;;;;10314883;28;20222;-78
2023/11/15 13:50:48;;;;;;;1.50;0.90;;;14.40;42.40;;;;;;10333345;28;20231;-78
2023/11/15 13:55:51;;;;;;;1.63;1.00;;;14.40;42.20;;;;;;10319629;28;20300;-77
2023/11/15 14:00:54;;;;;;;1.87;1.10;;;14.40;42.30;;;;;;10317870;28;20229;-77
2023/11/15 14:05:59;;;;;;;1.23;0.80;;;14.30;42.30;;;;;;10320117;28;20223;-77
2023/11/15 14:11:07;;;;;;;2.10;1.00;;;14.30;42.20;;;;;;10300032;28;20222;-77
2023/11/15 14:16:11;;;;;;;2.07;1.50;;;14.20;42.10;;;;;;10320064;28;20230;-74
2023/11/15 14:21:15;;;;;;;3.70;2.40;;;14.20;42.20;;;;;;10327515;28;20223;-75
2023/11/15 14:26:19;;;;;;;3.80;2.67;;;14.10;42.00;;;;;;10352125;28;20227;-75
2023/11/15 14:31:23;;;;;;;4.60;2.70;;;14.10;42.40;;;;;;10313261;28;20318;-75
2023/11/15 14:36:27;;;;;;;1.63;1.53;;;14.10;42.50;;;;;;10323695;28;20736;-75
2023/11/15 14:41:31;;;;;;;1.37;1.23;;;14.10;42.00;;;;;;10296271;28;20227;-75
2023/11/15 14:46:34;;;;;;;1.70;0.97;;;14.20;42.60;;;;;;10323553;28;20597;-74
2023/11/15 14:51:39;;;;;;;2.37;1.00;;;14.20;42.00;;;;;;10310622;28;20325;-75
2023/11/15 14:56:42;;;;;;;1.17;0.90;;;14.30;41.90;;;;;;10288339;28;20233;-74
2023/11/15 15:01:46;;;;;;;0.73;0.73;;;14.30;41.90;;;;;;10278269;28;20227;-75
2023/11/15 15:06:51;;;;;;;1.57;1.20;;;14.20;42.00;;;;;;10286047;28;20251;-74
2023/11/15 15:11:56;;;;;;;1.20;1.10;;;14.20;41.90;;;;;;10285376;28;20593;-74
2023/11/15 15:16:59;;;;;;;8.83;6.13;;;14.20;42.10;;;;;;10307760;28;20227;-75
2023/11/15 15:22:05;;;;;;;8.37;5.10;;;14.20;42.10;;;;;;10330307;28;20230;-73
2023/11/15 15:27:08;;;;;;;2.87;2.10;;;14.20;42.20;;;;;;10323444;28;20335;-74
2023/11/15 15:32:11;;;;;;;2.17;1.37;;;14.20;42.20;;;;;;10298988;28;20333;-75
2023/11/15 15:37:17;;;;;;;2.57;1.83;;;14.20;42.00;;;;;;10287946;28;20238;-75
2023/11/15 15:42:21;;;;;;;2.47;1.90;;;14.10;41.90;;;;;;10303119;28;20325;-75
2023/11/15 15:47:24;;;;;;;3.10;2.00;;;14.00;42.20;;;;;;10299487;28;20237;-75
2023/11/15 15:52:29;;;;;;;1.70;1.43;;;13.90;42.00;;;;;;10308042;28;20227;-73
2023/11/15 15:57:33;;;;;;;1.60;1.50;;;13.80;41.90;;;;;;10297714;28;20238;-74
2023/11/15 16:02:36;;;;;;;2.10;1.77;;;13.80;42.00;;;;;;10283959;28;20228;-74
2023/11/15 16:07:41;;;;;;;1.77;1.40;;;13.80;41.80;;;;;;10294987;28;20593;-74
2023/11/15 16:12:45;;;;;;;1.03;0.93;;;13.80;42.90;;;;;;10308032;28;20711;-74
2023/11/15 16:17:48;;;;;;;1.27;1.03;;;13.80;41.90;;;;;;10302215;28;20598;-75
2023/11/15 16:22:55;;;;;;;1.40;1.30;;;13.70;41.60;;;;;;10289885;28;20243;-75
2023/11/15 16:27:59;;;;;;;1.83;1.40;;;13.70;41.90;;;;;;10292712;28;20714;-75
2023/11/15 16:33:02;;;;;;;1.80;1.43;;;13.60;41.90;;;;;;10312201;28;20223;-75
2023/11/15 16:38:07;;;;;;;3.93;2.20;;;13.60;42.10;;;;;;10300700;28;20262;-75
2023/11/15 16:43:12;;;;;;;1.70;1.60;;;13.60;42.00;;;;;;10289730;28;20228;-76
2023/11/15 16:48:16;;;;;;;2.50;2.30;;;13.60;42.00;;;;;;10293206;28;20278;-76
2023/11/15 16:53:20;;;;;;;1.40;1.30;;;13.50;42.20;;;;;;10308186;28;20262;-75
2023/11/15 16:58:24;;;;;;;3.80;2.97;;;13.40;42.00;;;;;;10320167;28;20226;-75
2023/11/15 17:03:27;;;;;;;2.27;1.50;;;13.30;42.30;;;;;;10304925;28;20271;-76
2023/11/15 17:08:33;;;;;;;2.33;1.50;;;13.30;42.20;;;;;;10292045;28;20690;-76
2023/11/15 17:13:36;;;;;;;1.67;1.10;;;13.30;41.90;;;;;;10295274;28;20253;-75
2023/11/15 17:18:40;;;;;;;1.53;1.23;;;13.30;41.80;;;;;;10288048;28;20235;-75
2023/11/15 17:23:47;;;;;;;9.27;7.03;;;13.30;42.10;;;;;;10294904;28;20246;-75
2023/11/15 17:28:50;;;;;;;3.63;1.80;;;13.20;42.00;;;;;;10298350;28;20227;-75
2023/11/15 17:33:55;;;;;;;3.07;1.80;;;13.10;41.90;;;;;;10289832;28;20571;-75
2023/11/15 17:39:00;;;;;;;1.47;1.30;;;13.00;41.80;;;;;;10286038;28;20309;-75
2023/11/15 17:44:07;;;;;;;1.80;1.60;;;13.00;41.70;;;;;;10316699;28;20219;-76
2023/11/15 17:49:14;;;;;;;1.93;1.40;;;12.90;41.80;;;;;;10318946;28;20229;-75
2023/11/15 17:54:21;;;;;;;2.87;1.40;;;12.90;41.90;;;;;;10294785;28;21008;-73
2023/11/15 17:59:24;;;;;;;1.60;1.40;;;12.80;41.50;;;;;;10259710;28;20608;-74
2023/11/15 18:04:27;;;;;;;1.97;1.30;;;12.80;41.70;;;;;;10260502;28;20227;-75
2023/11/15 18:09:33;;;;;;;2.63;1.50;;;12.90;41.80;;;;;;10262229;28;20234;-74
2023/11/15 18:14:37;;;;;;;2.20;1.57;;;12.90;41.60;;;;;;10255427;28;20251;-75
2023/11/15 18:19:40;;;;;;;3.77;2.57;;;12.90;41.90;;;;;;10251390;28;20239;-75
2023/11/15 18:24:45;;;;;;;3.17;2.23;;;12.90;41.70;;;;;;10247372;28;20303;-75
2023/11/15 18:29:49;;;;;;;2.37;2.00;;;12.90;41.50;;;;;;10249210;28;20281;-74
2023/11/15 18:34:52;;;;;;;2.53;2.13;;;12.90;41.70;;;;;;10251967;28;20274;-73
2023/11/15 18:39:57;;;;;;;1.50;1.40;;;12.90;42.40;;;;;;10287443;28;20257;-73
2023/11/15 18:45:04;;;;;;;2.50;1.80;;;12.80;41.30;;;;;;10255886;28;20672;-73
2023/11/15 18:50:08;;;;;;;2.97;1.60;;;12.80;41.70;;;;;;10248637;28;20274;-74
2023/11/15 18:55:17;;;;;;;3.13;1.47;;;12.70;41.90;;;;;;10288849;28;20234;-74
2023/11/15 19:00:22;;;;;;;1.43;1.20;;;12.80;42.10;;;;;;10287901;28;20309;-75
2023/11/15 19:05:26;;;;;;;2.03;1.33;;;12.80;41.90;;;;;;10297006;28;20239;-76
2023/11/15 19:10:32;;;;;;;1.30;1.10;;;12.70;41.60;;;;;;10289120;28;20313;-76
2023/11/15 19:15:37;;;;;;;2.07;1.07;;;12.70;41.60;;;;;;10294765;28;20451;-76
2023/11/15 19:20:41;;;;;;;1.90;1.30;;;12.60;41.90;;;;;;10295796;28;20223;-76
2023/11/15 19:25:46;;;;;;;1.70;1.10;;;12.60;41.90;;;;;;10304563;28;20303;-76
2023/11/15 19:30:49;;;;;;;1.97;1.30;;;12.50;42.10;;;;;;10304300;28;20262;-75
2023/11/15 19:35:53;;;;;;;2.23;1.30;;;12.50;42.10;;;;;;10312066;28;20314;-74
2023/11/15 19:40:58;;;;;;;2.20;1.37;;;12.50;41.80;;;;;;10305888;28;20234;-72
2023/11/15 19:46:01;;;;;;;2.57;1.50;;;12.50;41.60;;;;;;10299614;28;20765;-73
2023/11/15 19:51:05;;;;;;;1.77;1.50;;;12.50;42.10;;;;;;10273358;28;20625;-74
2023/11/15 19:56:10;;;;;;;2.83;1.37;;;12.50;42.10;;;;;;10270020;28;20228;-72
2023/11/15 20:01:13;;;;;;;2.17;1.23;;;12.60;41.70;;;;;;10266646;28;20241;-73
2023/11/15 20:06:16;;;;;;;2.00;1.30;;;12.60;41.70;;;;;;10263485;28;20263;-73
2023/11/15 20:11:22;;;;;;;2.17;1.50;;;12.60;41.70;;;;;;10275724;28;20626;-71
2023/11/15 20:16:27;;;;;;;2.40;1.60;;;12.60;41.60;;;;;;10268799;28;20235;-73
2023/11/15 20:21:31;;;;;;;1.77;1.20;;;12.60;42.00;;;;;;10272843;28;20254;-74
2023/11/15 20:26:36;;;;;;;2.37;1.47;;;12.60;42.20;;;;;;10278015;28;20236;-74
2023/11/15 20:31:39;;;;;;;1.50;1.20;;;12.60;42.20;;;;;;10284308;28;20235;-74
2023/11/15 20:36:42;;;;;;;2.53;1.83;;;12.60;42.20;;;;;;10263890;28;20975;-74
2023/11/15 20:41:47;;;;;;;3.47;1.40;;;12.60;42.20;;;;;;10270380;28;20224;-74
2023/11/15 20:46:50;;;;;;;1.87;1.50;;;12.60;42.20;;;;;;10261818;28;20722;-74
2023/11/15 20:51:57;;;;;;;2.43;1.50;;;12.60;42.90;;;;;;10261589;28;21185;-74
2023/11/15 20:57:01;;;;;;;1.60;1.50;;;12.60;42.20;;;;;;10263830;28;20592;-74
2023/11/15 21:02:05;;;;;;;3.63;1.70;;;12.60;42.20;;;;;;10284046;28;20301;-74
2023/11/15 21:07:10;;;;;;;1.73;1.20;;;12.60;42.30;;;;;;10309042;28;20306;-74
2023/11/15 21:12:15;;;;;;;2.73;1.40;;;12.60;42.20;;;;;;10300433;28;20266;-74
2023/11/15 21:17:18;;;;;;;3.93;1.60;;;12.60;42.20;;;;;;10295160;28;20231;-74
2023/11/15 21:22:23;;;;;;;1.57;1.30;;;12.60;42.20;;;;;;10291246;28;20248;-74
2023/11/15 21:27:28;;;;;;;1.60;1.30;;;12.60;42.20;;;;;;10306308;28;20234;-74
2023/11/15 21:32:31;;;;;;;1.50;1.40;;;12.60;42.20;;;;;;10297313;28;20227;-74
2023/11/15 21:37:39;;;;;;;1.43;1.20;;;12.50;42.10;;;;;;10296695;28;20324;-75
2023/11/15 21:42:45;;;;;;;2.10;0.97;;;12.50;42.10;;;;;;10302870;28;20235;-74
2023/11/15 21:47:48;;;;;;;2.63;1.00;;;12.50;42.10;;;;;;10294343;28;20219;-74
2023/11/15 21:52:53;;;;;;;2.07;1.10;;;12.50;42.10;;;;;;10288154;28;20233;-74
2023/11/15 21:58:01;;;;;;;2.83;1.10;;;12.50;42.10;;;;;;10291334;28;20585;-74
2023/11/15 22:03:05;;;;;;;1.80;1.10;;;12.40;42.00;;;;;;10298059;28;20428;-74
2023/11/15 22:08:08;;;;;;;1.83;1.00;;;12.40;42.00;;;;;;10304295;28;20662;-74
2023/11/15 22:13:13;;;;;;;2.60;1.10;;;12.30;42.00;;;;;;10303369;28;20223;-74
2023/11/15 22:18:16;;;;;;;2.80;1.30;;;12.30;41.90;;;;;;10305068;28;20321;-74
2023/11/15 22:23:19;;;;;;;1.93;1.20;;;12.20;41.90;;;;;;10307016;28;20310;-73
2023/11/15 22:28:24;;;;;;;1.80;1.30;;;12.20;41.90;;;;;;10313693;28;20235;-73
2023/11/15 22:33:27;;;;;;;2.77;1.30;;;12.10;41.80;;;;;;10313894;28;20310;-73
2023/11/15 22:38:30;;;;;;;4.77;1.20;;;12.00;41.70;;;;;;10303760;28;21008;-73
2023/11/15 22:43:35;;;;;;;2.53;1.20;;;12.00;41.70;;;;;;10301131;28;20226;-74
2023/11/15 22:48:38;;;;;;;3.13;1.20;;;11.90;41.60;;;;;;10300139;28;20230;-73
2023/11/15 22:53:41;;;;;;;2.60;1.30;;;11.90;41.60;;;;;;10305706;28;20219;-72
2023/11/15 22:58:46;;;;;;;2.37;1.10;;;11.80;41.50;;;;;;10298730;28;20234;-73
2023/11/15 23:03:51;;;;;;;2.90;2.30;;;11.80;41.50;;;;;;10320379;28;20246;-73
2023/11/15 23:08:55;;;;;;;2.33;1.50;;;11.80;41.50;;;;;;10317017;28;20235;-73
2023/11/15 23:14:00;;;;;;;2.10;1.40;;;11.80;41.50;;;;;;10317529;28;20219;-74
2023/11/15 23:19:04;;;;;;;2.07;1.33;;;11.70;41.40;;;;;;10358116;28;20230;-74
2023/11/15 23:24:07;;;;;;;3.60;1.40;;;11.70;41.40;;;;;;10357702;28;20256;-74
2023/11/15 23:29:12;;;;;;;2.87;1.30;;;11.60;41.30;;;;;;10358447;28;20230;-74
2023/11/15 23:34:16;;;;;;;1.50;1.13;;;11.60;41.30;;;;;;10357164;28;20724;-74
2023/11/15 23:39:22;;;;;;;1.93;1.30;;;11.40;41.20;;;;;;10357309;28;20792;-74
2023/11/15 23:44:27;;;;;;;2.63;1.40;;;11.40;41.20;;;;;;10350730;28;20652;-74
2023/11/15 23:49:30;;;;;;;1.93;1.60;;;11.30;41.40;;;;;;10298109;28;20230;-74
2023/11/15 23:54:33;;;;;;;2.47;1.60;;;11.20;41.50;;;;;;10321607;28;20227;-74
2023/11/15 23:59:39;;;;;;;3.67;1.60;;;11.20;42.00;;;;;;10302096;28;20314;-73
